Time;durP1;ratioP1;P1;durP2;ratioP2;P2;SDS_P1;SDS_P2;PMS_P1;PMS_P2;Temp;Humidity;BMP_temperature;BMP_pressure;BME280_temperature;BME280_humidity;BME280_pressure;Samples;Min_cycle;Max_cycle;Signal;HPM_P1;HPM_P2
2021/12/11 00:02:09;;;;;;;7.83;5.00;;;4.50;99.90;;;;;;5065533;28;20497;-70
2021/12/11 00:04:38;;;;;;;9.80;5.60;;;4.30;99.90;;;;;;5066304;28;21041;-69
2021/12/11 00:07:10;;;;;;;9.20;5.80;;;4.30;99.90;;;;;;5065819;28;20449;-70
2021/12/11 00:09:48;;;;;;;8.60;5.80;;;4.20;99.90;;;;;;5066567;28;20437;-71
2021/12/11 00:12:26;;;;;;;8.13;5.97;;;4.20;99.90;;;;;;5075703;28;20516;-69
2021/12/11 00:15:00;;;;;;;10.40;6.40;;;4.20;99.90;;;;;;5066547;28;20938;-69
2021/12/11 00:17:30;;;;;;;9.23;6.47;;;4.20;99.90;;;;;;5069531;28;20430;-69
2021/12/11 00:19:56;;;;;;;8.60;6.63;;;4.30;99.90;;;;;;5068935;28;20539;-68
2021/12/11 00:22:25;;;;;;;8.83;6.33;;;4.10;99.90;;;;;;5071452;28;20465;-67
2021/12/11 00:24:51;;;;;;;9.83;6.37;;;4.10;99.90;;;;;;5069451;28;20172;-67
2021/12/11 00:27:22;;;;;;;11.13;6.27;;;4.20;99.90;;;;;;5071025;28;20445;-67
2021/12/11 00:29:48;;;;;;;9.07;6.67;;;4.20;99.90;;;;;;5070656;28;20911;-67
2021/12/11 00:32:25;;;;;;;9.77;6.67;;;4.20;99.90;;;;;;5070524;28;20437;-67
2021/12/11 00:34:53;;;;;;;10.33;6.60;;;4.20;99.90;;;;;;5069626;28;20490;-66
2021/12/11 00:37:22;;;;;;;9.80;6.67;;;4.20;99.90;;;;;;5071032;28;20440;-68
2021/12/11 00:39:52;;;;;;;11.37;7.30;;;4.20;99.90;;;;;;5069198;28;20446;-69
2021/12/11 00:42:21;;;;;;;12.00;8.37;;;4.20;99.90;;;;;;5069415;28;20501;-67
2021/12/11 00:44:51;;;;;;;17.53;11.20;;;4.20;99.90;;;;;;5070479;28;20506;-66
2021/12/11 00:47:20;;;;;;;25.27;15.07;;;4.30;99.90;;;;;;5069580;28;20414;-67
2021/12/11 00:49:56;;;;;;;27.90;15.97;;;4.30;99.90;;;;;;5070345;28;20434;-69
2021/12/11 00:52:38;;;;;;;36.90;19.60;;;4.50;99.90;;;;;;5070269;28;20426;-68
2021/12/11 00:55:16;;;;;;;38.33;20.07;;;4.40;99.90;;;;;;5069916;28;20560;-67
2021/12/11 00:57:43;;;;;;;37.43;20.80;;;4.30;99.90;;;;;;5070222;28;20415;-68
2021/12/11 01:00:13;;;;;;;37.90;20.03;;;4.20;99.90;;;;;;5068033;28;20464;-68
2021/12/11 01:02:39;;;;;;;37.77;20.60;;;4.30;99.90;;;;;;5070037;28;20425;-68
2021/12/11 01:05:07;;;;;;;36.67;19.73;;;4.20;99.90;;;;;;5068719;28;20422;-69
2021/12/11 01:07:34;;;;;;;34.63;19.07;;;4.20;99.90;;;;;;5054356;28;20945;-68
2021/12/11 01:10:09;;;;;;;36.83;19.23;;;4.10;99.90;;;;;;5069376;28;20521;-69
2021/12/11 01:12:45;;;;;;;37.10;20.07;;;4.10;99.90;;;;;;5074354;28;20477;-70
2021/12/11 01:15:24;;;;;;;33.67;19.63;;;4.10;99.90;;;;;;5076332;28;21026;-70
2021/12/11 01:21:09;;;;;;;37.37;19.43;;;4.00;99.90;;;;;;5069282;28;20427;-70
2021/12/11 01:26:08;;;;;;;37.83;19.43;;;4.00;99.90;;;;;;5070282;28;20426;-69
2021/12/11 01:28:35;;;;;;;37.10;19.83;;;4.00;99.90;;;;;;5069172;28;20443;-69
2021/12/11 01:31:04;;;;;;;31.40;17.77;;;4.00;99.90;;;;;;5069237;28;20492;-70
2021/12/11 01:33:31;;;;;;;34.40;19.40;;;4.00;99.90;;;;;;5069316;28;20507;-69
2021/12/11 01:35:56;;;;;;;33.57;19.07;;;4.00;99.90;;;;;;5069334;28;20528;-68
2021/12/11 01:38:24;;;;;;;37.53;18.80;;;4.00;99.90;;;;;;5070040;28;20415;-70
2021/12/11 01:40:55;;;;;;;47.53;20.33;;;3.90;99.90;;;;;;5073570;28;20172;-70
2021/12/11 01:43:23;;;;;;;39.97;20.23;;;3.90;99.90;;;;;;5079662;28;20422;-67
2021/12/11 01:45:51;;;;;;;39.33;19.67;;;3.90;99.90;;;;;;5072492;28;20414;-67
2021/12/11 01:48:26;;;;;;;43.20;19.87;;;3.90;99.90;;;;;;5069519;28;20415;-68
2021/12/11 01:50:57;;;;;;;44.33;20.60;;;3.90;99.90;;;;;;5069067;28;20532;-67
2021/12/11 01:53:29;;;;;;;37.20;19.73;;;3.80;99.90;;;;;;5055227;28;20430;-67
2021/12/11 01:56:01;;;;;;;36.10;19.60;;;3.80;99.90;;;;;;5066602;28;20508;-67
2021/12/11 01:58:36;;;;;;;36.20;18.60;;;3.90;99.90;;;;;;5069158;28;20399;-68
2021/12/11 02:01:27;;;;;;;37.03;18.20;;;3.90;99.90;;;;;;5069815;28;20418;-68
2021/12/11 02:03:54;;;;;;;43.13;20.00;;;3.90;99.90;;;;;;5067312;28;20858;-70
2021/12/11 02:06:20;;;;;;;41.27;20.53;;;3.80;99.90;;;;;;5069225;28;20514;-67
2021/12/11 02:08:46;;;;;;;43.33;19.70;;;3.80;99.90;;;;;;5068265;28;20435;-67
2021/12/11 02:11:23;;;;;;;41.17;21.60;;;3.80;99.90;;;;;;5067360;28;20426;-69
2021/12/11 02:13:57;;;;;;;36.97;19.90;;;3.80;99.90;;;;;;5056529;28;20302;-69
2021/12/11 02:16:31;;;;;;;37.17;19.27;;;3.80;99.90;;;;;;5068891;28;20461;-67
2021/12/11 02:19:08;;;;;;;39.43;19.90;;;3.70;99.90;;;;;;5065275;28;20434;-68
2021/12/11 02:21:42;;;;;;;39.90;19.50;;;3.70;99.90;;;;;;5069742;28;20824;-67
2021/12/11 02:24:11;;;;;;;41.70;20.57;;;3.70;99.90;;;;;;5067438;28;20975;-69
2021/12/11 02:26:39;;;;;;;44.13;20.53;;;3.80;99.90;;;;;;5067461;28;20418;-70
2021/12/11 02:29:26;;;;;;;37.43;20.17;;;3.50;99.90;;;;;;5067184;28;20442;-67
2021/12/11 02:32:03;;;;;;;41.37;20.07;;;3.70;99.90;;;;;;5067868;28;20423;-67
2021/12/11 02:34:35;;;;;;;46.10;21.13;;;3.80;99.90;;;;;;5067052;28;20427;-68
2021/12/11 02:37:14;;;;;;;40.40;20.87;;;3.80;99.90;;;;;;5069046;28;20456;-67
2021/12/11 02:39:48;;;;;;;39.57;20.60;;;3.80;99.90;;;;;;5067836;28;20936;-69
2021/12/11 02:42:28;;;;;;;40.23;19.80;;;3.80;99.90;;;;;;5077103;28;20480;-67
2021/12/11 02:45:04;;;;;;;39.80;21.07;;;3.80;99.90;;;;;;5076584;28;20509;-69
2021/12/11 02:47:33;;;;;;;43.30;20.60;;;3.80;99.90;;;;;;5068603;28;20442;-68
2021/12/11 02:50:09;;;;;;;44.10;21.97;;;3.80;99.90;;;;;;5068522;28;20439;-67
2021/12/11 02:52:42;;;;;;;42.93;20.73;;;3.70;99.90;;;;;;5064592;28;20997;-68
2021/12/11 02:55:11;;;;;;;41.77;19.87;;;3.80;99.90;;;;;;5066261;28;20454;-67
2021/12/11 02:57:48;;;;;;;40.77;21.47;;;3.80;99.90;;;;;;5068590;28;20831;-67
2021/12/11 03:00:19;;;;;;;40.23;20.77;;;3.90;99.90;;;;;;5067970;28;20434;-67
2021/12/11 03:02:50;;;;;;;45.23;22.53;;;3.80;99.90;;;;;;5067631;28;20419;-67
2021/12/11 03:05:22;;;;;;;42.83;21.13;;;3.90;99.90;;;;;;5067970;28;20936;-67
2021/12/11 03:07:52;;;;;;;49.73;20.93;;;4.00;99.90;;;;;;5066888;28;20430;-66
2021/12/11 03:10:22;;;;;;;45.70;19.77;;;4.00;99.90;;;;;;5067485;28;20438;-67
2021/12/11 03:12:48;;;;;;;41.73;21.10;;;3.80;99.90;;;;;;5064223;28;20951;-67
2021/12/11 03:15:15;;;;;;;38.43;21.27;;;3.50;99.90;;;;;;5076947;28;20599;-66
2021/12/11 03:17:41;;;;;;;43.43;21.40;;;3.80;99.90;;;;;;5066240;28;20176;-67
2021/12/11 03:20:10;;;;;;;43.50;21.30;;;3.80;99.90;;;;;;5067717;28;20450;-67
2021/12/11 03:22:36;;;;;;;47.27;22.10;;;3.80;99.90;;;;;;5066853;28;20223;-67
2021/12/11 03:25:06;;;;;;;40.03;21.30;;;3.90;99.90;;;;;;5067140;28;20446;-67
2021/12/11 03:27:32;;;;;;;42.70;20.73;;;3.90;99.90;;;;;;5067864;28;20720;-67
2021/12/11 03:29:58;;;;;;;40.67;20.80;;;3.80;99.90;;;;;;5066613;28;20490;-67
2021/12/11 03:32:23;;;;;;;45.13;22.10;;;3.80;99.90;;;;;;5068086;28;20199;-66
2021/12/11 03:34:50;;;;;;;39.80;20.60;;;3.90;99.90;;;;;;5065519;28;20441;-67
2021/12/11 03:37:18;;;;;;;37.40;21.00;;;3.90;99.90;;;;;;5067616;28;20180;-69
2021/12/11 03:39:47;;;;;;;40.93;21.67;;;3.90;99.90;;;;;;5066458;28;20798;-69
2021/12/11 03:42:18;;;;;;;45.50;20.93;;;3.90;99.90;;;;;;5076591;28;20418;-68
2021/12/11 03:44:44;;;;;;;41.73;21.63;;;3.90;99.90;;;;;;5068575;28;20418;-67
2021/12/11 03:47:14;;;;;;;44.73;20.67;;;3.80;99.90;;;;;;5068004;28;20497;-66
2021/12/11 03:49:40;;;;;;;45.97;22.57;;;3.80;99.90;;;;;;5066816;28;20443;-70
2021/12/11 03:52:10;;;;;;;52.67;22.47;;;3.80;99.90;;;;;;5066822;28;20422;-67
2021/12/11 03:54:39;;;;;;;41.80;21.20;;;3.80;99.90;;;;;;5067364;28;20192;-68
2021/12/11 03:57:07;;;;;;;42.43;20.90;;;3.80;99.90;;;;;;5067069;28;20427;-69
2021/12/11 03:59:33;;;;;;;53.47;24.10;;;3.80;99.90;;;;;;5066976;28;20470;-66
2021/12/11 04:02:04;;;;;;;43.93;22.30;;;3.70;99.90;;;;;;5066536;28;20519;-67
2021/12/11 04:04:38;;;;;;;43.40;21.67;;;3.80;99.90;;;;;;5067251;28;20192;-67
2021/12/11 04:07:06;;;;;;;41.07;21.80;;;3.80;99.90;;;;;;5067910;28;21115;-67
2021/12/11 04:09:31;;;;;;;41.10;21.10;;;3.90;99.90;;;;;;5066905;28;20438;-67
2021/12/11 04:11:59;;;;;;;38.83;21.30;;;3.90;99.90;;;;;;5072929;28;20965;-67
2021/12/11 04:14:30;;;;;;;42.90;21.03;;;4.00;99.90;;;;;;5064393;28;20192;-68
2021/12/11 04:16:56;;;;;;;42.13;20.80;;;4.00;99.90;;;;;;5067439;28;20869;-68
2021/12/11 04:19:23;;;;;;;42.00;20.03;;;4.00;99.90;;;;;;5068322;28;20453;-68
2021/12/11 04:21:49;;;;;;;42.10;21.70;;;3.90;99.90;;;;;;5069098;28;20495;-69
2021/12/11 04:24:18;;;;;;;47.70;21.53;;;3.80;99.90;;;;;;5066299;28;20423;-67
2021/12/11 04:26:45;;;;;;;44.47;21.93;;;3.90;99.90;;;;;;5066417;28;20423;-70
2021/12/11 04:29:12;;;;;;;50.63;22.60;;;3.90;99.90;;;;;;5066676;28;20438;-67
2021/12/11 04:31:42;;;;;;;49.40;21.53;;;3.90;99.90;;;;;;5067920;28;20468;-66
2021/12/11 04:34:12;;;;;;;48.93;22.00;;;3.90;99.90;;;;;;5065183;28;20907;-67
2021/12/11 04:36:42;;;;;;;47.73;23.40;;;3.80;99.90;;;;;;5066988;28;20497;-67
2021/12/11 04:39:10;;;;;;;38.50;21.07;;;3.80;99.90;;;;;;5067029;28;20430;-69
2021/12/11 04:41:48;;;;;;;51.07;23.53;;;3.80;99.90;;;;;;5069510;28;20889;-66
2021/12/11 04:44:31;;;;;;;46.87;21.40;;;3.70;99.90;;;;;;5071039;28;20450;-69
2021/12/11 04:46:56;;;;;;;46.87;22.07;;;3.70;99.90;;;;;;5066976;28;20791;-67
2021/12/11 04:49:33;;;;;;;43.50;21.67;;;3.70;99.90;;;;;;5065968;28;20445;-66
2021/12/11 04:52:18;;;;;;;41.57;21.47;;;3.70;99.90;;;;;;5067492;28;20214;-66
2021/12/11 05:00:06;;;;;;;43.07;20.73;;;3.90;99.90;;;;;;5065905;28;20438;-66
2021/12/11 05:10:33;;;;;;;38.67;19.33;;;3.90;99.90;;;;;;5070282;28;20442;-69
2021/12/11 05:12:59;;;;;;;40.00;20.30;;;3.90;99.90;;;;;;5087613;28;20558;-69
2021/12/11 05:15:32;;;;;;;44.60;21.10;;;4.00;99.90;;;;;;5074404;28;20529;-69
2021/12/11 05:17:58;;;;;;;34.73;19.30;;;4.00;99.90;;;;;;5068347;28;20645;-69
2021/12/11 05:20:27;;;;;;;35.43;19.73;;;4.00;99.90;;;;;;5069820;28;20449;-68
2021/12/11 05:22:53;;;;;;;37.07;19.30;;;4.00;99.90;;;;;;5069406;28;20437;-68
2021/12/11 05:25:19;;;;;;;38.23;19.70;;;4.00;99.90;;;;;;5068235;28;20425;-68
2021/12/11 05:27:46;;;;;;;36.20;19.63;;;4.00;99.90;;;;;;5068581;28;20411;-69
2021/12/11 05:30:19;;;;;;;33.97;19.80;;;3.90;99.90;;;;;;5068998;28;20208;-69
2021/12/11 05:32:45;;;;;;;35.67;18.73;;;3.90;99.90;;;;;;5065472;28;20457;-68
2021/12/11 05:35:13;;;;;;;36.03;19.00;;;3.90;99.90;;;;;;5070187;28;20446;-69
2021/12/11 05:37:39;;;;;;;38.07;19.00;;;3.90;99.90;;;;;;5068707;28;20468;-68
2021/12/11 05:40:08;;;;;;;39.60;19.03;;;3.90;99.90;;;;;;5069537;28;20847;-68
2021/12/11 05:42:34;;;;;;;33.27;18.40;;;4.00;99.90;;;;;;5079011;28;20417;-69
2021/12/11 05:45:02;;;;;;;36.73;18.13;;;4.00;99.90;;;;;;5069070;28;20476;-68
2021/12/11 05:47:28;;;;;;;32.50;18.70;;;3.90;99.90;;;;;;5069770;28;20227;-68
2021/12/11 05:49:53;;;;;;;31.97;17.83;;;3.90;99.90;;;;;;5068542;28;20434;-68
2021/12/11 05:52:20;;;;;;;33.27;19.07;;;3.90;99.90;;;;;;5068745;28;20246;-68
2021/12/11 05:54:47;;;;;;;37.87;19.03;;;3.80;99.90;;;;;;5067797;28;20654;-70
2021/12/11 05:57:16;;;;;;;35.50;18.27;;;3.80;99.90;;;;;;5068911;28;20419;-69
2021/12/11 05:59:44;;;;;;;35.70;18.70;;;3.80;99.90;;;;;;5069548;28;20919;-67
2021/12/11 06:02:22;;;;;;;43.23;19.87;;;3.80;99.90;;;;;;5068942;28;20414;-71
2021/12/11 06:04:51;;;;;;;38.30;20.37;;;3.80;99.90;;;;;;5067747;28;20954;-70
2021/12/11 06:07:19;;;;;;;35.70;19.17;;;3.70;99.90;;;;;;5073421;28;20433;-69
2021/12/11 06:09:49;;;;;;;38.60;18.50;;;3.70;99.90;;;;;;5062642;28;20489;-69
2021/12/11 06:12:18;;;;;;;41.77;18.97;;;3.80;99.90;;;;;;5077608;28;20438;-68
2021/12/11 06:14:46;;;;;;;38.10;18.20;;;4.10;99.90;;;;;;5064488;28;20418;-70
2021/12/11 06:17:15;;;;;;;41.63;19.73;;;3.70;99.90;;;;;;5068024;28;20434;-71
2021/12/11 06:19:44;;;;;;;34.50;18.23;;;3.70;99.90;;;;;;5068738;28;20434;-69
2021/12/11 06:22:09;;;;;;;32.37;17.03;;;4.10;99.90;;;;;;5069359;28;20402;-70
2021/12/11 06:24:35;;;;;;;35.83;18.17;;;3.80;99.90;;;;;;5068095;28;20415;-71
2021/12/11 06:27:01;;;;;;;42.43;19.43;;;4.00;99.90;;;;;;5068179;28;20259;-71
2021/12/11 06:29:27;;;;;;;43.67;21.27;;;3.80;99.90;;;;;;5067829;28;20207;-71
2021/12/11 06:31:53;;;;;;;41.90;20.60;;;3.90;99.90;;;;;;5073742;28;20802;-72
2021/12/11 06:34:19;;;;;;;45.03;21.10;;;3.70;99.90;;;;;;5070538;28;20438;-71
2021/12/11 06:36:46;;;;;;;48.83;23.87;;;3.70;99.90;;;;;;5068718;28;20548;-68
2021/12/11 06:39:16;;;;;;;42.00;24.27;;;3.80;99.90;;;;;;5068120;28;20200;-70
2021/12/11 06:41:45;;;;;;;39.97;20.30;;;4.20;99.90;;;;;;5071452;28;20418;-70
2021/12/11 06:44:11;;;;;;;32.87;17.83;;;3.80;99.90;;;;;;5073239;28;20433;-70
2021/12/11 06:46:39;;;;;;;36.00;18.93;;;4.00;99.90;;;;;;5068809;28;20730;-70
2021/12/11 06:49:05;;;;;;;36.20;18.07;;;3.70;99.90;;;;;;5068823;28;20227;-70
2021/12/11 06:51:32;;;;;;;34.00;16.30;;;3.70;99.90;;;;;;5068355;28;20455;-70
2021/12/11 06:54:03;;;;;;;33.80;17.77;;;3.80;99.90;;;;;;5067617;28;20199;-69
2021/12/11 06:56:29;;;;;;;33.77;17.90;;;3.70;99.90;;;;;;5068426;28;20501;-68
2021/12/11 06:58:56;;;;;;;34.33;17.57;;;3.70;99.90;;;;;;5068247;28;20479;-69
2021/12/11 07:01:23;;;;;;;31.13;16.20;;;3.70;99.90;;;;;;5068535;28;20168;-69
2021/12/11 07:03:50;;;;;;;38.17;17.50;;;3.90;99.90;;;;;;5067115;28;20476;-69
2021/12/11 07:06:15;;;;;;;33.93;16.23;;;3.70;99.90;;;;;;5066745;28;20426;-68
2021/12/11 07:08:41;;;;;;;39.93;18.30;;;4.10;99.90;;;;;;5067316;28;20434;-69
2021/12/11 07:11:10;;;;;;;31.10;16.87;;;3.90;99.90;;;;;;5064076;28;20196;-70
2021/12/11 07:13:38;;;;;;;38.03;17.53;;;3.70;99.90;;;;;;5074276;28;20437;-68
2021/12/11 07:16:04;;;;;;;30.80;16.97;;;3.80;99.90;;;;;;5066839;28;20473;-70
2021/12/11 07:18:31;;;;;;;31.10;16.67;;;3.80;99.90;;;;;;5066289;28;20483;-68
2021/12/11 07:20:57;;;;;;;35.77;18.57;;;3.80;99.90;;;;;;5067942;28;20831;-68
2021/12/11 07:23:23;;;;;;;37.50;18.13;;;3.80;99.90;;;;;;5066975;28;20535;-70
2021/12/11 07:26:15;;;;;;;30.10;16.27;;;4.10;99.90;;;;;;5067210;28;20472;-71
2021/12/11 07:28:43;;;;;;;29.00;15.67;;;3.80;99.90;;;;;;5067985;28;20185;-68
2021/12/11 07:31:08;;;;;;;31.07;16.87;;;3.90;99.90;;;;;;5063677;28;20418;-68
2021/12/11 07:33:34;;;;;;;35.50;17.03;;;3.90;99.90;;;;;;5067862;28;20911;-68
2021/12/11 07:36:00;;;;;;;30.03;16.27;;;3.90;99.90;;;;;;5068124;28;20192;-70
2021/12/11 07:38:26;;;;;;;33.10;16.90;;;4.00;99.90;;;;;;5068192;28;20177;-69
2021/12/11 07:40:58;;;;;;;29.87;15.10;;;3.90;99.90;;;;;;5072072;28;20413;-70
2021/12/11 07:43:26;;;;;;;33.40;16.63;;;4.00;99.90;;;;;;5076879;28;20418;-71
2021/12/11 07:45:52;;;;;;;28.00;14.70;;;6.10;99.90;;;;;;5088275;28;20773;-70
2021/12/11 07:48:18;;;;;;;32.00;16.17;;;4.00;99.90;;;;;;5080936;28;21009;-69
2021/12/11 15:05:56;;;;;;;19.60;10.20;;;5.20;99.90;;;;;;5061224;28;20573;-68
2021/12/11 15:08:25;;;;;;;20.00;12.10;;;5.30;99.90;;;;;;5048070;28;20921;-67
2021/12/11 15:10:55;;;;;;;16.77;10.70;;;5.30;99.90;;;;;;5040476;28;20432;-67
2021/12/11 15:13:23;;;;;;;16.57;10.20;;;5.40;99.90;;;;;;5043805;28;20535;-68
2021/12/11 15:15:50;;;;;;;14.53;9.60;;;5.60;99.90;;;;;;5040577;28;20425;-68
2021/12/11 15:18:17;;;;;;;13.90;9.67;;;5.70;99.90;;;;;;5037207;28;20813;-68
2021/12/11 15:20:52;;;;;;;16.80;9.43;;;5.70;99.90;;;;;;5033654;28;20558;-68
2021/12/11 15:23:19;;;;;;;17.13;10.90;;;5.80;99.90;;;;;;5044453;28;20469;-69
2021/12/11 15:25:46;;;;;;;13.77;9.53;;;5.80;99.90;;;;;;5039115;28;20467;-68
2021/12/11 15:28:11;;;;;;;14.27;9.27;;;5.80;99.90;;;;;;5032746;28;20911;-69
2021/12/11 15:30:46;;;;;;;19.20;9.80;;;5.80;99.90;;;;;;5041686;28;20509;-70
2021/12/11 15:33:12;;;;;;;13.10;9.50;;;5.90;99.90;;;;;;5040682;28;20223;-69
2021/12/11 15:35:46;;;;;;;15.23;9.90;;;5.90;99.90;;;;;;5049807;28;20862;-69
2021/12/11 15:38:13;;;;;;;15.90;9.90;;;5.90;99.90;;;;;;5041571;28;20293;-68
2021/12/11 15:40:42;;;;;;;13.80;9.40;;;5.90;99.90;;;;;;5047403;28;20937;-68
2021/12/11 15:43:10;;;;;;;15.20;8.80;;;6.10;99.90;;;;;;5044939;28;20982;-68
2021/12/11 15:45:39;;;;;;;12.97;8.70;;;5.90;99.90;;;;;;5042793;28;20963;-69
2021/12/11 15:48:05;;;;;;;13.63;8.50;;;5.90;99.90;;;;;;5042717;28;20427;-68
2021/12/11 15:50:34;;;;;;;13.97;8.67;;;6.00;99.90;;;;;;5022848;28;20449;-69
2021/12/11 15:53:00;;;;;;;12.17;9.40;;;6.00;99.90;;;;;;5025469;28;20897;-69
2021/12/11 15:55:28;;;;;;;11.73;8.50;;;6.00;99.90;;;;;;5038027;28;20444;-69
2021/12/11 15:57:57;;;;;;;13.83;9.27;;;6.00;99.90;;;;;;5030437;28;20506;-69
2021/12/11 16:00:29;;;;;;;13.03;9.27;;;6.00;99.90;;;;;;5025141;28;20440;-69
2021/12/11 16:02:55;;;;;;;13.00;8.90;;;6.10;99.90;;;;;;5028240;28;20562;-69
2021/12/11 16:05:23;;;;;;;16.90;10.20;;;6.10;99.90;;;;;;5022663;28;20437;-69
2021/12/11 16:07:50;;;;;;;15.43;10.33;;;6.10;99.90;;;;;;5049336;28;20180;-69
2021/12/11 16:10:17;;;;;;;14.33;9.83;;;6.10;99.90;;;;;;5055686;28;20853;-68
2021/12/11 16:12:43;;;;;;;16.00;11.20;;;6.10;99.90;;;;;;5052157;28;20509;-68
2021/12/11 16:15:13;;;;;;;17.27;11.17;;;6.10;99.90;;;;;;5041402;28;20412;-68
2021/12/11 16:17:39;;;;;;;16.13;10.80;;;6.10;99.90;;;;;;5018894;28;20170;-68
2021/12/11 16:20:08;;;;;;;19.20;11.90;;;6.10;99.90;;;;;;5029924;28;20447;-68
2021/12/11 16:22:39;;;;;;;16.33;10.80;;;6.00;99.90;;;;;;5024189;28;20182;-67
2021/12/11 16:25:15;;;;;;;15.47;10.80;;;6.00;99.90;;;;;;5030499;28;20533;-68
2021/12/11 16:27:42;;;;;;;16.73;11.30;;;6.00;99.90;;;;;;5029679;28;20485;-67
2021/12/11 16:30:11;;;;;;;17.73;11.30;;;6.10;99.90;;;;;;5025933;28;20441;-67
2021/12/11 16:32:36;;;;;;;18.70;10.97;;;6.10;99.90;;;;;;5013070;28;20440;-68
2021/12/11 16:35:08;;;;;;;16.97;11.40;;;6.00;99.90;;;;;;5026615;28;20853;-68
2021/12/11 16:37:42;;;;;;;15.80;11.03;;;6.00;99.90;;;;;;5029908;28;20186;-67
2021/12/11 16:40:13;;;;;;;17.53;11.43;;;6.00;99.90;;;;;;5024347;28;20467;-68
2021/12/11 16:42:40;;;;;;;16.03;11.03;;;6.00;99.90;;;;;;5028738;28;20818;-68
2021/12/11 16:45:16;;;;;;;17.63;10.97;;;6.00;99.90;;;;;;5028447;28;20543;-67
2021/12/11 16:47:43;;;;;;;20.77;11.80;;;6.00;99.90;;;;;;5029665;28;20401;-68
2021/12/11 16:50:11;;;;;;;18.90;11.87;;;6.00;99.90;;;;;;5019883;28;20845;-68
2021/12/11 16:52:37;;;;;;;20.50;13.17;;;6.00;99.90;;;;;;5021558;28;20930;-67
2021/12/11 16:55:04;;;;;;;20.90;12.40;;;6.00;99.90;;;;;;5026358;28;20427;-68
2021/12/11 16:57:29;;;;;;;18.83;11.70;;;6.00;99.90;;;;;;5009785;28;20178;-68
2021/12/11 16:59:55;;;;;;;25.50;15.33;;;6.10;99.90;;;;;;5014795;28;20831;-68
2021/12/11 17:02:23;;;;;;;19.33;11.53;;;6.10;99.90;;;;;;5008752;28;20841;-68
2021/12/11 17:04:49;;;;;;;23.03;14.00;;;6.10;99.90;;;;;;5038447;28;20213;-67
2021/12/11 17:07:15;;;;;;;20.20;10.93;;;6.10;99.90;;;;;;5029616;28;20412;-68
2021/12/11 17:09:44;;;;;;;18.73;12.10;;;6.00;99.90;;;;;;5027377;28;20440;-68
2021/12/11 17:12:17;;;;;;;18.47;12.60;;;6.00;99.90;;;;;;5044818;28;20424;-68
2021/12/11 17:14:43;;;;;;;21.60;12.50;;;6.00;99.90;;;;;;5027939;28;20409;-67
2021/12/11 17:17:09;;;;;;;15.73;10.30;;;6.00;99.90;;;;;;5029243;28;20432;-68
2021/12/11 17:19:36;;;;;;;18.90;12.73;;;5.90;99.90;;;;;;5024104;28;20445;-68
2021/12/11 17:22:05;;;;;;;14.43;9.73;;;5.90;99.90;;;;;;5021073;28;20648;-68
2021/12/11 17:24:32;;;;;;;20.30;11.97;;;6.00;99.90;;;;;;5021912;28;20460;-68
2021/12/11 17:26:59;;;;;;;25.17;13.97;;;6.00;99.90;;;;;;5027430;28;20490;-68
2021/12/11 17:29:27;;;;;;;24.30;14.37;;;6.00;99.90;;;;;;5027068;28;20447;-68
2021/12/11 17:31:54;;;;;;;18.60;12.90;;;6.00;99.90;;;;;;5027193;28;20442;-68
2021/12/11 17:34:21;;;;;;;19.17;12.60;;;6.00;99.90;;;;;;5033387;28;20420;-68
2021/12/11 17:36:48;;;;;;;21.17;11.20;;;6.00;99.90;;;;;;5010512;28;20441;-68
2021/12/11 17:39:14;;;;;;;20.87;14.00;;;6.00;99.90;;;;;;5009235;28;20433;-67
2021/12/11 17:41:40;;;;;;;18.30;10.80;;;6.00;99.90;;;;;;5023379;28;20516;-67
2021/12/11 17:44:07;;;;;;;18.27;11.97;;;6.00;99.90;;;;;;5028528;28;20468;-67
2021/12/11 17:46:37;;;;;;;19.27;12.63;;;5.90;99.90;;;;;;5027101;28;20408;-68
2021/12/11 17:49:05;;;;;;;21.30;12.93;;;5.90;99.90;;;;;;5026959;28;20454;-67
2021/12/11 17:51:33;;;;;;;18.17;12.77;;;5.90;99.90;;;;;;5015916;28;20488;-68
2021/12/11 17:53:59;;;;;;;21.90;13.50;;;5.90;99.90;;;;;;5026123;28;20847;-67
2021/12/11 17:56:24;;;;;;;19.80;12.83;;;6.00;99.90;;;;;;5026710;28;20424;-67
2021/12/11 17:58:56;;;;;;;19.70;12.20;;;6.00;99.90;;;;;;5026923;28;20194;-67
2021/12/11 18:01:33;;;;;;;20.83;12.30;;;5.90;99.90;;;;;;5024618;28;20185;-67
2021/12/11 18:04:03;;;;;;;18.00;12.27;;;5.90;99.90;;;;;;5033294;28;20904;-67
2021/12/11 18:06:30;;;;;;;25.33;13.37;;;6.00;99.90;;;;;;5016820;28;20264;-68
2021/12/11 18:08:57;;;;;;;19.63;12.27;;;5.90;99.90;;;;;;5015550;28;20428;-68
2021/12/11 18:11:58;;;;;;;19.30;12.00;;;5.90;99.90;;;;;;5014658;28;20453;-68
2021/12/11 18:14:30;;;;;;;19.93;12.10;;;5.80;99.90;;;;;;5000922;28;20483;-67
2021/12/11 18:17:03;;;;;;;27.23;16.80;;;5.80;99.90;;;;;;5027254;28;20424;-67
2021/12/11 18:19:40;;;;;;;23.33;12.73;;;5.80;99.90;;;;;;5026958;28;20969;-68
2021/12/11 18:22:11;;;;;;;20.00;12.93;;;5.90;99.90;;;;;;5017105;28;20933;-68
2021/12/11 18:24:37;;;;;;;19.50;12.77;;;5.90;99.90;;;;;;5026434;28;20461;-68
2021/12/11 18:27:06;;;;;;;19.80;12.90;;;5.80;99.90;;;;;;5023412;28;20482;-68
2021/12/11 18:29:34;;;;;;;19.97;12.73;;;5.80;99.90;;;;;;5027889;28;20235;-67
2021/12/11 18:32:05;;;;;;;15.97;10.80;;;5.80;99.90;;;;;;5019568;28;20499;-68
2021/12/11 18:34:32;;;;;;;25.90;16.10;;;5.80;99.90;;;;;;5035009;28;20401;-68
2021/12/11 18:37:24;;;;;;;47.33;27.90;;;5.90;99.90;;;;;;5026757;28;20420;-68
2021/12/11 18:39:55;;;;;;;21.67;13.87;;;4.80;99.90;;;;;;5024104;28;20444;-69
2021/12/11 18:42:28;;;;;;;18.60;12.27;;;5.90;99.90;;;;;;5017746;28;20414;-69
2021/12/11 18:44:55;;;;;;;15.70;9.90;;;5.90;99.90;;;;;;5007150;28;20503;-69
2021/12/11 18:47:22;;;;;;;23.13;14.73;;;5.90;99.90;;;;;;5007501;28;20413;-68
2021/12/11 18:49:49;;;;;;;19.93;12.20;;;5.90;99.90;;;;;;5008406;28;20607;-68
2021/12/11 18:52:20;;;;;;;22.70;14.40;;;5.90;99.90;;;;;;5017723;28;20497;-68
2021/12/11 18:54:48;;;;;;;28.73;17.90;;;5.90;99.90;;;;;;5007782;28;20417;-68
2021/12/11 18:57:23;;;;;;;26.37;16.40;;;5.90;99.90;;;;;;5012634;28;20494;-68
2021/12/11 18:59:51;;;;;;;21.93;14.40;;;6.00;99.90;;;;;;5026005;28;20456;-67
2021/12/11 19:02:26;;;;;;;18.90;12.30;;;6.00;99.90;;;;;;5025080;28;20412;-68
2021/12/11 19:05:00;;;;;;;18.37;11.80;;;6.00;99.90;;;;;;5027421;28;20513;-68
2021/12/11 19:07:27;;;;;;;30.33;17.37;;;6.00;99.90;;;;;;5027622;28;20507;-68
2021/12/11 19:09:55;;;;;;;39.10;20.40;;;6.00;99.90;;;;;;5025133;28;20439;-68
2021/12/11 19:12:28;;;;;;;21.77;12.90;;;6.00;99.90;;;;;;5026010;28;20448;-68
2021/12/11 19:15:02;;;;;;;19.30;11.93;;;6.00;99.90;;;;;;5024606;28;20409;-68
2021/12/11 19:17:28;;;;;;;21.63;12.60;;;6.10;99.90;;;;;;5005893;28;20414;-68
2021/12/11 19:19:54;;;;;;;18.77;11.50;;;6.00;99.90;;;;;;5007195;28;20447;-68
2021/12/11 19:22:23;;;;;;;17.53;11.23;;;6.00;99.90;;;;;;5018255;28;20226;-68
2021/12/11 19:24:49;;;;;;;21.97;12.63;;;6.00;99.90;;;;;;5025371;28;20468;-68
2021/12/11 19:27:21;;;;;;;20.13;14.00;;;6.00;99.90;;;;;;5007489;28;20405;-68
2021/12/11 19:29:53;;;;;;;16.97;12.00;;;6.00;99.90;;;;;;5008200;28;20182;-68
2021/12/11 19:32:20;;;;;;;15.90;11.83;;;6.00;99.90;;;;;;5007513;28;20923;-68
2021/12/11 19:34:46;;;;;;;17.10;9.90;;;6.00;99.90;;;;;;5040595;28;20760;-68
2021/12/11 19:37:12;;;;;;;14.67;9.50;;;6.00;99.90;;;;;;5027213;28;20469;-68
2021/12/11 19:39:48;;;;;;;14.57;9.10;;;5.90;99.90;;;;;;5025455;28;20429;-67
2021/12/11 19:42:15;;;;;;;13.90;8.83;;;6.00;99.90;;;;;;5013530;28;20467;-68
2021/12/11 19:44:41;;;;;;;14.80;9.50;;;6.00;99.90;;;;;;5015438;28;20449;-68
2021/12/11 19:47:08;;;;;;;14.53;9.17;;;6.00;99.90;;;;;;5007481;28;20409;-68
2021/12/11 19:49:34;;;;;;;15.60;8.93;;;6.00;99.90;;;;;;5021454;28;20493;-68
2021/12/11 19:52:05;;;;;;;15.57;8.00;;;5.80;99.90;;;;;;5027058;28;20500;-67
2021/12/11 19:54:37;;;;;;;14.87;7.80;;;6.20;99.90;;;;;;5027515;28;21020;-68
2021/12/11 19:57:04;;;;;;;14.47;8.83;;;6.00;99.90;;;;;;5034228;28;21122;-68
2021/12/11 19:59:37;;;;;;;14.40;7.93;;;5.90;99.90;;;;;;5042355;28;20443;-67
2021/12/11 20:02:07;;;;;;;13.03;7.83;;;6.00;99.90;;;;;;5032030;28;20424;-68
2021/12/11 20:04:33;;;;;;;11.40;8.00;;;6.00;99.90;;;;;;5029357;28;20464;-68
2021/12/11 20:06:59;;;;;;;11.80;7.63;;;6.00;99.90;;;;;;5022304;28;20432;-68
2021/12/11 20:09:43;;;;;;;14.53;8.50;;;6.00;99.90;;;;;;5029046;28;20520;-68
2021/12/11 20:12:09;;;;;;;12.07;7.27;;;6.00;99.90;;;;;;5018173;28;20185;-68
2021/12/11 20:14:35;;;;;;;10.47;6.57;;;6.00;99.90;;;;;;5029405;28;20412;-68
2021/12/11 20:17:01;;;;;;;13.57;7.73;;;6.00;99.90;;;;;;5010752;28;20193;-67
2021/12/11 20:19:38;;;;;;;12.90;7.70;;;5.90;99.90;;;;;;5009778;28;20952;-68
2021/12/11 20:22:08;;;;;;;12.43;7.40;;;5.90;99.90;;;;;;5016969;28;20312;-67
2021/12/11 20:24:35;;;;;;;10.47;6.63;;;5.90;99.90;;;;;;5023402;28;20459;-68